This is the latest recevied weather packets stored in our database for station/object HA2SKA-1. If no packets are shown the sender has not sent any weather packets the latest 10 day(s).
| Time | Temp. | Humidity | Pressure | Rain* | Wind** | Luminosity | Snow |
|---|---|---|---|---|---|---|---|
| 1777797067 | 23.33° C | 26% | 1022.5 hPa | - | - | - | - |
| 1777796166 | 23.33° C | 27% | 1022.6 hPa | - | - | - | - |
| 1777795266 | 22.78° C | 27% | 1022.5 hPa | - | - | - | - |
| 1777794366 | 23.33° C | 28% | 1022.7 hPa | - | - | - | - |
| 1777793466 | 22.78° C | 28% | 1022.6 hPa | - | - | - | - |
| 1777792566 | 22.78° C | 30% | 1022.5 hPa | - | - | - | - |
| 1777791666 | 22.78° C | 31% | 1022.4 hPa | - | - | - | - |
| 1777790766 | 21.67° C | 31% | 1022.4 hPa | - | - | - | - |
| 1777789866 | 21.67° C | 32% | 1022.4 hPa | - | - | - | - |
| 1777788966 | 21.11° C | 32% | 1022.4 hPa | - | - | - | - |
| 1777788066 | 20.56° C | 38% | 1022.2 hPa | - | - | - | - |
| 1777787165 | 20° C | 37% | 1022.1 hPa | - | - | - | - |
| 1777786265 | 19.44° C | 37% | 1022.2 hPa | - | - | - | - |
| 1777785365 | 18.89° C | 40% | 1022.1 hPa | - | - | - | - |
| 1777784465 | 18.33° C | 40% | 1022 hPa | - | - | - | - |
| 1777783565 | 16.11° C | 47% | 1021.9 hPa | - | - | - | - |
| 1777782665 | 13.33° C | 52% | 1021.9 hPa | - | - | - | - |
| 1777781765 | 11.67° C | 55% | 1022 hPa | - | - | - | - |
| 1777780865 | 11.11° C | 56% | 1021.9 hPa | - | - | - | - |
| 1777779965 | 12.22° C | 51% | 1021.7 hPa | - | - | - | - |
| 1777779065 | 10° C | 61% | 1021.8 hPa | - | - | - | - |
| 1777778164 | 10.56° C | 58% | 1021.8 hPa | - | - | - | - |
| 1777777264 | 11.11° C | 55% | 1021.7 hPa | - | - | - | - |
| 1777776364 | 11.67° C | 55% | 1021.7 hPa | - | - | - | - |
| 1777775464 | 12.78° C | 50% | 1021.6 hPa | - | - | - | - |
* Rain since midnight (hover to see other rain measurements)
** Current wind speed in m/s (hover to see current wind gust speed)